createdAt,value
2019-05-11T00:00:01.510Z,64.66
2019-05-11T00:02:30.806Z,64.13
2019-05-11T00:05:00.129Z,64.48
2019-05-11T00:07:29.730Z,64.33
2019-05-11T00:09:59.324Z,64.67
2019-05-11T00:12:28.785Z,64.31
2019-05-11T00:14:58.679Z,64.73
2019-05-11T00:17:29.285Z,65.05
2019-05-11T00:19:58.649Z,64.78
2019-05-11T00:22:27.946Z,65.32
2019-05-11T00:24:57.524Z,64.92
2019-05-11T00:27:26.864Z,65.06
2019-05-11T00:29:56.598Z,65.25
2019-05-11T00:32:26.122Z,65.09
2019-05-11T00:34:55.444Z,65.67
2019-05-11T00:37:24.748Z,65.56
2019-05-11T00:39:54.048Z,65.82
2019-05-11T00:42:23.417Z,65.81
2019-05-11T00:44:54.194Z,65.85
2019-05-11T00:47:23.513Z,66.33
2019-05-11T00:49:53.055Z,66.92
2019-05-11T00:52:22.424Z,67.09
2019-05-11T00:54:51.729Z,67.34
2019-05-11T00:57:21.058Z,68.15
2019-05-11T00:59:50.506Z,67.74
2019-05-11T01:02:19.828Z,68.26
2019-05-11T01:04:49.149Z,68.93
2019-05-11T01:07:18.476Z,68.90
2019-05-11T01:09:47.781Z,69.23
2019-05-11T01:12:17.096Z,69.51
2019-05-11T01:14:46.476Z,69.45
2019-05-11T01:17:15.844Z,69.02
2019-05-11T01:19:45.443Z,69.12
2019-05-11T01:22:16.598Z,69.67
2019-05-11T01:24:46.728Z,69.60
2019-05-11T01:27:16.085Z,69.41
2019-05-11T01:29:46.393Z,69.17
2019-05-11T01:32:15.712Z,69.15
2019-05-11T01:34:45.009Z,69.05
2019-05-11T01:37:14.463Z,69.54
2019-05-11T01:39:43.797Z,68.53
2019-05-11T01:42:13.140Z,69.47
2019-05-11T01:44:44.404Z,69.79
2019-05-11T01:47:13.726Z,70.20
2019-05-11T01:49:43.950Z,69.92
2019-05-11T01:52:13.311Z,69.52
2019-05-11T01:54:42.655Z,69.83
2019-05-11T01:57:13.430Z,70.19
2019-05-11T01:59:42.948Z,70.66
2019-05-11T02:02:12.247Z,71.11
2019-05-11T02:04:41.661Z,72.00
2019-05-11T02:07:10.929Z,72.42
2019-05-11T02:09:40.332Z,71.86
2019-05-11T02:12:09.646Z,71.82
2019-05-11T02:14:38.911Z,72.10
2019-05-11T02:17:08.211Z,73.06
2019-05-11T02:19:37.488Z,72.53
2019-05-11T02:22:06.825Z,71.89
2019-05-11T02:24:37.931Z,72.32
2019-05-11T02:27:09.069Z,72.25
2019-05-11T02:29:41.306Z,72.25
2019-05-11T02:32:09.443Z,72.02
2019-05-11T02:34:38.721Z,72.03
2019-05-11T02:37:08.017Z,72.03
2019-05-11T02:39:37.283Z,73.80
2019-05-11T02:42:06.579Z,74.09
2019-05-11T02:44:35.861Z,74.08
2019-05-11T02:47:05.154Z,74.00
2019-05-11T02:49:34.462Z,73.62
2019-05-11T02:52:03.987Z,73.50
2019-05-11T02:54:34.766Z,73.98
2019-05-11T02:57:04.070Z,74.66
2019-05-11T02:59:33.341Z,74.59
2019-05-11T03:02:02.637Z,76.00
2019-05-11T03:04:31.977Z,74.86
2019-05-11T03:07:01.253Z,75.31
2019-05-11T03:09:30.528Z,75.47
2019-05-11T03:11:59.784Z,75.05
2019-05-11T03:14:29.068Z,75.62
2019-05-11T03:17:12.786Z,75.49
2019-05-11T03:19:42.158Z,76.00
2019-05-11T03:22:11.406Z,76.64
2019-05-11T03:24:40.697Z,76.33
2019-05-11T03:27:09.957Z,77.06
2019-05-11T03:29:39.235Z,76.74
2019-05-11T03:32:08.487Z,76.41
2019-05-11T03:34:37.795Z,76.94
2019-05-11T03:37:07.091Z,77.28
2019-05-11T03:39:36.444Z,77.62
2019-05-11T03:42:14.619Z,77.28
2019-05-11T03:44:36.732Z,77.21
2019-05-11T03:47:06.014Z,77.06
2019-05-11T03:49:35.311Z,77.37
2019-05-11T03:52:04.594Z,77.20
2019-05-11T03:54:33.909Z,77.60
2019-05-11T03:57:03.158Z,77.86
2019-05-11T03:59:32.477Z,78.16
2019-05-11T04:02:03.567Z,78.58
2019-05-11T04:04:32.904Z,78.25
2019-05-11T04:07:02.209Z,78.05
2019-05-11T04:09:41.646Z,78.24
2019-05-11T04:12:32.845Z,78.33
2019-05-11T04:14:44.094Z,78.06
2019-05-11T04:17:13.350Z,77.89
2019-05-11T04:19:44.437Z,77.41
2019-05-11T04:22:13.707Z,77.80
2019-05-11T04:24:43.040Z,77.70
2019-05-11T04:27:12.317Z,77.42
2019-05-11T04:29:41.589Z,77.80
2019-05-11T04:32:10.859Z,76.24
2019-05-11T04:34:40.259Z,77.29
2019-05-11T04:37:09.571Z,78.13
2019-05-11T04:39:38.895Z,78.00
2019-05-11T04:42:08.163Z,78.46
2019-05-11T04:44:37.484Z,78.25
2019-05-11T04:47:06.752Z,77.64
2019-05-11T04:49:36.034Z,78.22
2019-05-11T04:52:05.393Z,78.71
2019-05-11T04:54:34.663Z,78.98
2019-05-11T04:57:03.935Z,79.39
2019-05-11T04:59:33.337Z,79.47
2019-05-11T05:02:02.630Z,78.60
2019-05-11T05:04:31.889Z,79.14
2019-05-11T05:07:05.484Z,79.22
2019-05-11T05:09:36.061Z,78.29
2019-05-11T05:12:08.429Z,78.83
2019-05-11T05:14:35.971Z,77.99
2019-05-11T05:17:05.253Z,78.72
2019-05-11T05:19:34.571Z,78.66
2019-05-11T05:22:03.887Z,77.88
2019-05-11T05:24:33.171Z,78.08
2019-05-11T05:27:03.940Z,77.47
2019-05-11T05:29:33.266Z,77.81
2019-05-11T05:32:06.562Z,77.69
2019-05-11T05:34:35.841Z,77.82
2019-05-11T05:37:05.124Z,78.26
2019-05-11T05:39:34.406Z,78.14
2019-05-11T05:42:03.726Z,77.82
2019-05-11T05:44:33.011Z,78.07
2019-05-11T05:47:02.277Z,77.26
2019-05-11T05:49:31.546Z,76.98
2019-05-11T05:52:00.940Z,76.20
2019-05-11T05:54:30.228Z,76.35
2019-05-11T05:56:59.553Z,77.13
2019-05-11T05:59:28.855Z,77.04
2019-05-11T06:01:58.176Z,77.00
2019-05-11T06:04:27.482Z,77.41
2019-05-11T06:06:56.848Z,76.94
2019-05-11T06:09:26.167Z,77.35
2019-05-11T06:11:55.420Z,76.61
2019-05-11T06:14:24.685Z,76.90
2019-05-11T06:16:54.158Z,75.89
2019-05-11T06:19:23.415Z,76.06
2019-05-11T06:21:52.743Z,75.83
2019-05-11T06:24:22.087Z,75.70
2019-05-11T06:26:51.374Z,76.08
2019-05-11T06:29:21.824Z,76.27
2019-05-11T06:31:51.367Z,76.73
2019-05-11T06:34:20.651Z,76.73
2019-05-11T06:36:50.028Z,76.58
2019-05-11T06:39:19.319Z,76.45
2019-05-11T06:41:48.623Z,76.33
2019-05-11T06:44:17.943Z,75.90
2019-05-11T06:46:47.260Z,76.31
2019-05-11T06:49:16.536Z,76.52
2019-05-11T06:51:45.835Z,76.18
2019-05-11T06:54:15.109Z,76.26
2019-05-11T06:56:44.428Z,75.35
2019-05-11T06:59:13.755Z,76.06
2019-05-11T07:01:43.253Z,76.94
2019-05-11T07:04:14.347Z,77.32
2019-05-11T07:06:43.650Z,77.40
2019-05-11T07:09:12.939Z,77.07
2019-05-11T07:11:42.212Z,76.61
2019-05-11T07:14:20.357Z,76.44
2019-05-11T07:16:42.511Z,76.14
2019-05-11T07:19:11.797Z,76.04
2019-05-11T07:21:41.077Z,76.05
2019-05-11T07:24:10.364Z,75.60
2019-05-11T07:26:39.663Z,76.02
2019-05-11T07:29:08.946Z,75.08
2019-05-11T07:31:38.296Z,72.71
2019-05-11T07:34:10.089Z,71.03
2019-05-11T07:36:39.486Z,63.57
2019-05-11T07:39:08.741Z,56.12
2019-05-11T07:41:39.119Z,48.07
2019-05-11T07:44:10.184Z,54.37
2019-05-11T07:46:39.559Z,56.66
2019-05-11T07:49:08.925Z,61.35
2019-05-11T07:51:38.972Z,63.18
2019-05-11T07:54:08.661Z,64.30
2019-05-11T07:56:39.065Z,65.11
2019-05-11T07:59:08.636Z,66.38
2019-05-11T08:01:38.689Z,66.51
2019-05-11T08:04:08.322Z,67.07
2019-05-11T08:06:39.680Z,67.53
2019-05-11T08:09:08.997Z,67.58
2019-05-11T08:11:39.046Z,66.58
2019-05-11T08:14:08.459Z,66.47
2019-05-11T08:16:39.062Z,67.10
2019-05-11T08:19:10.694Z,66.79
2019-05-11T08:21:39.676Z,66.81
2019-05-11T08:24:09.278Z,66.52
2019-05-11T08:26:38.865Z,66.54
2019-05-11T08:29:08.383Z,66.76
2019-05-11T08:31:38.453Z,66.84
2019-05-11T08:34:08.849Z,65.72
2019-05-11T08:36:38.398Z,64.99
2019-05-11T08:39:08.428Z,65.39
2019-05-11T08:41:38.642Z,65.69
2019-05-11T08:44:08.924Z,66.03
2019-05-11T08:46:38.882Z,66.64
2019-05-11T08:49:08.748Z,66.30
2019-05-11T08:51:38.850Z,66.59
2019-05-11T08:54:09.671Z,66.70
2019-05-11T08:56:38.945Z,65.44
2019-05-11T08:59:08.416Z,66.22
2019-05-11T09:01:39.368Z,65.86
2019-05-11T09:04:09.157Z,65.78
2019-05-11T09:06:38.580Z,66.09
2019-05-11T09:09:08.983Z,66.61
2019-05-11T09:11:39.099Z,66.19
2019-05-11T09:14:08.536Z,63.01
2019-05-11T09:16:38.458Z,59.57
2019-05-11T09:19:08.738Z,58.06
2019-05-11T09:21:38.580Z,53.12
2019-05-11T09:24:08.537Z,53.12
2019-05-11T09:26:38.879Z,53.89
2019-05-11T09:29:08.781Z,54.89
2019-05-11T09:31:38.428Z,55.33
2019-05-11T09:34:08.948Z,55.07
2019-05-11T09:36:39.111Z,58.04
2019-05-11T09:39:08.826Z,58.04
2019-05-11T09:41:38.542Z,57.98
2019-05-11T09:44:09.034Z,58.36
2019-05-11T09:46:39.704Z,58.99
2019-05-11T09:49:09.138Z,60.10
2019-05-11T09:51:39.875Z,60.35
2019-05-11T09:54:09.942Z,58.79
2019-05-11T09:56:39.767Z,59.11
2019-05-11T09:59:09.450Z,59.87
2019-05-11T10:01:39.298Z,61.35
2019-05-11T10:04:09.510Z,65.02
2019-05-11T10:06:40.155Z,72.83
2019-05-11T10:09:11.252Z,77.40
2019-05-11T10:11:41.557Z,77.30
2019-05-11T10:14:11.149Z,79.03
2019-05-11T10:16:41.261Z,79.38
2019-05-11T10:19:11.307Z,77.90
2019-05-11T10:21:41.125Z,77.94
2019-05-11T10:24:11.137Z,79.09
2019-05-11T10:26:42.341Z,79.48
2019-05-11T10:29:12.614Z,79.34
2019-05-11T10:31:44.014Z,79.50
2019-05-11T10:34:13.686Z,79.72
2019-05-11T10:36:48.632Z,77.69
2019-05-11T10:39:19.139Z,78.32
2019-05-11T10:41:48.696Z,74.96
2019-05-11T10:44:19.823Z,75.42
2019-05-11T10:46:49.763Z,72.19
2019-05-11T10:49:19.576Z,72.06
2019-05-11T10:51:50.399Z,71.21
2019-05-11T10:54:22.301Z,70.41
2019-05-11T10:56:51.840Z,67.55
2019-05-11T10:59:23.061Z,66.50
2019-05-11T11:01:52.803Z,66.71
2019-05-11T11:04:23.473Z,67.61
2019-05-11T11:06:53.118Z,64.75
2019-05-11T11:09:22.720Z,63.71
2019-05-11T11:11:53.394Z,64.01
2019-05-11T11:14:22.774Z,62.37
2019-05-11T11:16:52.377Z,63.87
2019-05-11T11:19:21.910Z,61.83
2019-05-11T11:21:54.181Z,62.34
2019-05-11T11:24:23.939Z,61.45
2019-05-11T11:26:53.721Z,61.13
2019-05-11T11:29:23.492Z,60.72
2019-05-11T11:31:54.085Z,63.45
2019-05-11T11:34:27.831Z,60.65
2019-05-11T11:36:58.467Z,60.64
2019-05-11T11:39:32.307Z,59.20
2019-05-11T11:42:02.984Z,56.56
2019-05-11T11:44:33.721Z,55.33
2019-05-11T11:47:03.258Z,55.18
2019-05-11T11:49:33.087Z,54.03
2019-05-11T11:52:02.957Z,54.29
2019-05-11T11:54:33.093Z,54.71
2019-05-11T11:57:02.686Z,55.92
2019-05-11T11:59:32.387Z,57.30
2019-05-11T12:02:01.956Z,55.28
2019-05-11T12:04:34.911Z,53.50
2019-05-11T12:07:04.487Z,53.82
2019-05-11T12:09:37.819Z,53.37
2019-05-11T12:12:08.374Z,51.38
2019-05-11T12:14:38.513Z,49.52
2019-05-11T12:17:11.148Z,46.69
2019-05-11T12:19:40.536Z,45.14
2019-05-11T12:22:09.806Z,45.14
2019-05-11T12:24:39.105Z,45.52
2019-05-11T12:27:08.411Z,46.68
2019-05-11T12:29:38.535Z,46.50
2019-05-11T12:32:13.015Z,46.86
2019-05-11T12:34:42.315Z,47.79
2019-05-11T12:37:11.575Z,48.63
2019-05-11T12:39:40.846Z,48.27
2019-05-11T12:42:10.162Z,47.62
2019-05-11T12:44:39.444Z,46.10
2019-05-11T12:47:21.562Z,46.82
2019-05-11T12:49:39.840Z,45.72
2019-05-11T12:52:09.152Z,46.42
2019-05-11T12:54:38.571Z,45.11
2019-05-11T12:57:08.040Z,44.65
2019-05-11T12:59:38.173Z,44.14
2019-05-11T13:02:09.389Z,43.52
2019-05-11T13:04:48.202Z,42.15
2019-05-11T13:07:19.741Z,41.68
2019-05-11T13:09:49.055Z,42.38
2019-05-11T13:12:18.733Z,43.00
2019-05-11T13:14:48.885Z,43.52
2019-05-11T13:17:18.788Z,43.25
2019-05-11T13:19:49.377Z,44.66
2019-05-11T13:22:19.753Z,45.20
2019-05-11T13:24:49.063Z,43.98
2019-05-11T13:27:19.584Z,44.91
2019-05-11T13:29:48.905Z,45.27
2019-05-11T13:32:18.724Z,44.79
2019-05-11T13:34:48.182Z,43.98
2019-05-11T13:37:18.811Z,44.19
2019-05-11T13:39:48.686Z,43.90
2019-05-11T13:42:19.541Z,43.36
2019-05-11T13:44:49.229Z,42.85
2019-05-11T13:47:19.591Z,43.48
2019-05-11T13:49:49.952Z,43.01
2019-05-11T13:52:19.298Z,43.52
2019-05-11T13:54:48.557Z,43.58
2019-05-11T13:57:18.248Z,43.97
2019-05-11T13:59:47.817Z,43.91
2019-05-11T14:02:18.063Z,43.26
2019-05-11T14:04:48.171Z,43.24
2019-05-11T14:07:18.642Z,43.64
2019-05-11T14:09:48.578Z,44.21
2019-05-11T14:12:18.329Z,44.50
2019-05-11T14:14:48.150Z,44.50
2019-05-11T14:17:18.661Z,44.48
2019-05-11T14:19:49.240Z,44.54
2019-05-11T14:22:18.780Z,43.91
2019-05-11T14:24:49.584Z,44.64
2019-05-11T14:27:18.921Z,43.95
2019-05-11T14:29:48.788Z,43.59
2019-05-11T14:32:18.244Z,43.98
2019-05-11T14:34:48.491Z,43.46
2019-05-11T14:37:18.171Z,43.73
2019-05-11T14:39:48.213Z,43.38
2019-05-11T14:42:22.062Z,42.79
2019-05-11T14:44:48.596Z,43.51
2019-05-11T14:47:18.166Z,43.37
2019-05-11T14:49:48.356Z,42.64
2019-05-11T14:52:18.987Z,44.07
2019-05-11T14:54:48.638Z,44.62
2019-05-11T14:57:18.643Z,45.76
2019-05-11T14:59:48.397Z,46.43
2019-05-11T15:02:37.782Z,46.60
2019-05-11T15:05:08.894Z,47.14
2019-05-11T15:07:39.804Z,47.05
2019-05-11T15:10:09.993Z,47.32
2019-05-11T15:12:39.299Z,47.59
2019-05-11T15:15:09.542Z,48.48
2019-05-11T15:17:39.640Z,49.06
2019-05-11T15:20:12.630Z,49.24
2019-05-11T15:22:42.590Z,49.51
2019-05-11T15:25:18.948Z,49.67
2019-05-11T15:27:48.745Z,49.68
2019-05-11T15:30:19.197Z,49.96
2019-05-11T15:32:48.616Z,50.85
2019-05-11T15:35:18.892Z,50.69
2019-05-11T15:37:48.528Z,50.95
2019-05-11T15:40:21.153Z,51.41
2019-05-11T15:42:50.611Z,51.44
2019-05-11T15:45:22.626Z,51.71
2019-05-11T15:47:52.032Z,51.88
2019-05-11T15:50:21.657Z,51.47
2019-05-11T15:52:50.929Z,51.78
2019-05-11T15:55:21.567Z,51.98
2019-05-11T15:57:50.964Z,52.23
2019-05-11T16:00:23.542Z,52.01
2019-05-11T16:02:54.279Z,52.29
2019-05-11T16:05:23.584Z,52.33
2019-05-11T16:07:52.921Z,52.44
2019-05-11T16:10:22.173Z,53.02
2019-05-11T16:12:51.522Z,52.76
2019-05-11T16:15:20.796Z,52.86
2019-05-11T16:17:50.585Z,52.76
2019-05-11T16:20:21.489Z,53.64
2019-05-11T16:22:50.811Z,53.29
2019-05-11T16:25:20.345Z,52.85
2019-05-11T16:27:49.980Z,53.60
2019-05-11T16:30:21.547Z,53.87
2019-05-11T16:32:50.452Z,53.24
2019-05-11T16:35:21.389Z,54.27
2019-05-11T16:37:50.671Z,53.84
2019-05-11T16:40:21.795Z,53.08
2019-05-11T16:42:51.243Z,52.74
2019-05-11T16:45:23.588Z,52.90
2019-05-11T16:47:51.583Z,53.16
2019-05-11T16:50:20.883Z,53.20
2019-05-11T16:52:50.183Z,53.15
2019-05-11T16:55:19.455Z,52.81
2019-05-11T16:57:48.957Z,52.71
2019-05-11T17:00:18.834Z,52.60
2019-05-11T17:02:48.958Z,52.03
2019-05-11T17:05:26.348Z,51.90
2019-05-11T17:07:51.772Z,52.30
2019-05-11T17:10:22.541Z,52.67
2019-05-11T17:12:51.814Z,52.83
2019-05-11T17:15:21.108Z,52.96
2019-05-11T17:17:50.434Z,53.81
2019-05-11T17:20:19.820Z,53.27
2019-05-11T17:22:49.446Z,54.35
2019-05-11T17:25:19.467Z,54.45
2019-05-11T17:27:49.381Z,54.85
2019-05-11T17:30:20.162Z,55.42
2019-05-11T17:32:49.988Z,56.25
2019-05-11T17:35:19.569Z,56.24
2019-05-11T17:37:48.984Z,56.81
2019-05-11T17:40:23.284Z,56.67
2019-05-11T17:42:53.579Z,56.89
2019-05-11T17:45:21.491Z,57.47
2019-05-11T17:47:50.789Z,57.35
2019-05-11T17:50:20.038Z,57.20
2019-05-11T17:52:49.449Z,57.61
2019-05-11T17:55:18.882Z,57.44
2019-05-11T17:57:49.639Z,57.91
2019-05-11T18:00:20.911Z,57.22
2019-05-11T18:02:50.438Z,56.96
2019-05-11T18:05:19.734Z,55.66
2019-05-11T18:07:49.025Z,55.69
2019-05-11T18:10:18.598Z,56.09
2019-05-11T18:12:49.069Z,56.51
2019-05-11T18:15:19.051Z,56.90
2019-05-11T18:17:49.734Z,57.16
2019-05-11T18:20:21.886Z,57.42
2019-05-11T18:22:50.535Z,57.54
2019-05-11T18:25:19.874Z,58.19
2019-05-11T18:27:49.158Z,58.37
2019-05-11T18:30:18.644Z,58.15
2019-05-11T18:32:49.342Z,58.43
2019-05-11T18:35:19.714Z,58.95
2019-05-11T18:37:49.294Z,59.16
2019-05-11T18:40:19.126Z,60.12
2019-05-11T18:42:49.037Z,60.31
2019-05-11T18:45:19.438Z,61.50
2019-05-11T18:47:49.408Z,61.91
2019-05-11T18:50:31.416Z,62.37
2019-05-11T18:52:50.596Z,62.79
2019-05-11T18:55:19.921Z,63.21
2019-05-11T18:57:49.500Z,62.06
2019-05-11T19:00:20.186Z,62.67
2019-05-11T19:02:49.881Z,63.16
2019-05-11T19:05:20.464Z,63.62
2019-05-11T19:07:49.763Z,64.08
2019-05-11T19:10:31.205Z,64.64
2019-05-11T19:13:01.637Z,64.43
2019-05-11T19:15:30.938Z,64.97
2019-05-11T19:18:00.219Z,65.07
2019-05-11T19:20:44.501Z,64.76
2019-05-11T19:23:01.663Z,65.37
2019-05-11T19:25:30.926Z,65.77
2019-05-11T19:28:01.677Z,66.46
2019-05-11T19:30:31.037Z,67.00
2019-05-11T19:33:00.359Z,66.83
2019-05-11T19:35:29.987Z,66.80
2019-05-11T19:38:01.135Z,66.56
2019-05-11T19:40:32.647Z,67.22
2019-05-11T19:43:03.990Z,67.50
2019-05-11T19:45:35.326Z,67.95
2019-05-11T19:48:04.932Z,68.58
2019-05-11T19:50:40.355Z,69.30
2019-05-11T19:53:08.418Z,69.96
2019-05-11T19:55:38.603Z,70.14
2019-05-11T19:58:08.441Z,70.54
2019-05-11T20:00:38.122Z,70.76
2019-05-11T20:03:09.038Z,71.37
2019-05-11T20:05:38.739Z,71.85
2019-05-11T20:08:08.085Z,72.19
2019-05-11T20:10:38.360Z,72.34
2019-05-11T20:13:08.188Z,72.37
2019-05-11T20:15:38.094Z,72.35
2019-05-11T20:18:08.094Z,72.22
2019-05-11T20:20:37.779Z,72.22
2019-05-11T20:23:08.941Z,72.29
2019-05-11T20:25:38.261Z,72.33
2019-05-11T20:28:07.670Z,72.45
2019-05-11T20:30:37.004Z,71.76
2019-05-11T20:33:15.784Z,72.37
2019-05-11T20:35:45.070Z,72.19
2019-05-11T20:38:14.363Z,72.45
2019-05-11T20:40:43.670Z,73.10
2019-05-11T20:43:15.147Z,74.26
2019-05-11T20:45:48.363Z,75.23
2019-05-11T20:48:18.524Z,75.55
2019-05-11T20:50:48.502Z,75.49
2019-05-11T20:53:18.226Z,75.98
2019-05-11T20:55:49.474Z,75.84
2019-05-11T20:58:19.257Z,75.94
2019-05-11T21:00:49.182Z,75.48
2019-05-11T21:03:18.739Z,75.36
2019-05-11T21:05:48.363Z,75.77
2019-05-11T21:08:18.960Z,75.50
2019-05-11T21:10:48.954Z,75.61
2019-05-11T21:13:19.956Z,75.66
2019-05-11T21:15:49.235Z,75.65
2019-05-11T21:18:18.642Z,75.59
2019-05-11T21:20:48.534Z,75.73
2019-05-11T21:23:18.572Z,75.65
2019-05-11T21:25:48.089Z,76.29
2019-05-11T21:28:17.431Z,76.07
2019-05-11T21:30:48.150Z,75.86
2019-05-11T21:33:18.005Z,76.41
2019-05-11T21:35:48.884Z,75.94
2019-05-11T21:38:18.326Z,76.20
2019-05-11T21:40:48.551Z,76.82
2019-05-11T21:43:17.989Z,76.62
2019-05-11T21:45:47.346Z,76.79
2019-05-11T21:48:16.675Z,76.58
2019-05-11T21:50:45.985Z,76.98
2019-05-11T21:53:15.275Z,76.17
2019-05-11T21:55:44.767Z,76.73
2019-05-11T21:58:14.099Z,76.18
2019-05-11T22:00:44.155Z,76.11
2019-05-11T22:03:13.464Z,76.83
2019-05-11T22:05:42.817Z,75.95
2019-05-11T22:08:12.212Z,75.96
2019-05-11T22:10:41.538Z,75.74
2019-05-11T22:13:10.832Z,75.92
2019-05-11T22:15:40.242Z,75.82
2019-05-11T22:18:09.773Z,75.97
2019-05-11T22:20:40.953Z,75.81
2019-05-11T22:23:10.371Z,75.45
2019-05-11T22:25:39.768Z,74.98
2019-05-11T22:28:09.304Z,75.09
2019-05-11T22:30:39.411Z,75.25
2019-05-11T22:33:09.140Z,75.55
2019-05-11T22:35:40.713Z,75.43
2019-05-11T22:38:10.356Z,75.42
2019-05-11T22:40:39.929Z,74.77
2019-05-11T22:43:09.713Z,74.29
2019-05-11T22:45:39.191Z,75.79
2019-05-11T22:48:08.667Z,74.93
2019-05-11T22:50:38.441Z,74.64
2019-05-11T22:53:08.651Z,74.84
2019-05-11T22:55:39.349Z,74.71
2019-05-11T22:58:08.917Z,74.21
2019-05-11T23:00:43.333Z,75.26
2019-05-11T23:03:13.058Z,74.42
2019-05-11T23:05:43.012Z,73.70
2019-05-11T23:08:12.487Z,73.74
2019-05-11T23:10:42.058Z,73.56
2019-05-11T23:13:12.057Z,73.61
2019-05-11T23:15:41.609Z,73.82
2019-05-11T23:18:10.874Z,73.80
2019-05-11T23:20:41.300Z,73.93
2019-05-11T23:23:10.665Z,73.85
2019-05-11T23:25:39.938Z,73.75
2019-05-11T23:28:09.240Z,73.87
2019-05-11T23:30:39.078Z,73.93
2019-05-11T23:33:08.552Z,73.49
2019-05-11T23:35:38.376Z,74.06
2019-05-11T23:38:07.883Z,74.25
2019-05-11T23:40:38.160Z,73.00
2019-05-11T23:43:08.764Z,72.49
2019-05-11T23:45:38.534Z,72.70
2019-05-11T23:48:08.234Z,72.89
2019-05-11T23:50:38.795Z,72.63
2019-05-11T23:53:10.213Z,72.87
2019-05-11T23:55:39.627Z,73.28
2019-05-11T23:58:19.329Z,73.77
